createdAt,value
2023-03-22T00:03:00.744Z,8.10
2023-03-22T00:06:03.670Z,8.16
2023-03-22T00:09:06.054Z,8.09
2023-03-22T00:12:08.296Z,7.85
2023-03-22T00:15:11.376Z,7.72
2023-03-22T00:18:14.605Z,7.83
2023-03-22T00:21:17.585Z,7.69
2023-03-22T00:24:21.278Z,7.85
2023-03-22T00:27:23.566Z,7.87
2023-03-22T00:30:25.953Z,7.70
2023-03-22T00:33:32.260Z,7.60
2023-03-22T00:36:34.580Z,7.52
2023-03-22T00:39:36.838Z,7.63
2023-03-22T00:42:41.213Z,7.43
2023-03-22T00:45:43.778Z,7.37
2023-03-22T00:48:46.721Z,7.30
2023-03-22T00:51:49.282Z,7.14
2023-03-22T00:54:51.932Z,7.13
2023-03-22T00:57:54.953Z,6.97
2023-03-22T01:00:57.282Z,7.02
2023-03-22T01:03:59.894Z,7.03
2023-03-22T01:07:03.842Z,7.01
2023-03-22T01:10:06.876Z,6.86
2023-03-22T01:13:11.418Z,7.02
2023-03-22T01:16:13.810Z,6.77
2023-03-22T01:19:16.210Z,6.62
2023-03-22T01:22:18.629Z,6.80
2023-03-22T01:25:21.100Z,7.01
2023-03-22T01:28:25.249Z,7.03
2023-03-22T01:31:29.169Z,6.74
2023-03-22T01:34:31.932Z,6.64
2023-03-22T01:37:34.666Z,6.73
2023-03-22T01:40:38.610Z,6.97
2023-03-22T01:43:43.104Z,6.91
2023-03-22T01:46:47.962Z,6.72
2023-03-22T01:49:50.340Z,6.53
2023-03-22T01:52:54.699Z,6.40
2023-03-22T01:56:01.920Z,6.42
2023-03-22T01:59:11.140Z,6.26
2023-03-22T02:02:33.897Z,6.37
2023-03-22T02:05:48.032Z,6.39
2023-03-22T02:08:53.066Z,6.29
2023-03-22T02:12:24.477Z,6.11
2023-03-22T02:15:38.615Z,5.97
2023-03-22T02:19:30.726Z,6.20
2023-03-22T02:22:39.666Z,6.04
2023-03-22T02:25:57.222Z,5.88
2023-03-22T02:29:23.030Z,5.85
2023-03-22T02:32:51.177Z,5.92
2023-03-22T02:36:32.633Z,6.27
2023-03-22T02:40:02.789Z,6.19
2023-03-22T02:43:56.524Z,6.09
2023-03-22T02:47:14.287Z,6.03
2023-03-22T02:50:31.910Z,6.16
2023-03-22T02:53:47.914Z,6.26
2023-03-22T02:57:00.433Z,6.46
2023-03-22T03:00:16.209Z,6.53
2023-03-22T03:03:20.995Z,6.55
2023-03-22T03:06:28.978Z,6.53
2023-03-22T03:09:33.232Z,6.56
2023-03-22T03:12:35.973Z,6.78
2023-03-22T03:15:42.618Z,6.82
2023-03-22T03:19:00.679Z,6.82
2023-03-22T03:22:13.939Z,6.79
2023-03-22T03:25:43.556Z,6.78
2023-03-22T03:28:53.162Z,6.64
2023-03-22T03:32:10.514Z,6.49
2023-03-22T03:35:25.567Z,6.38
2023-03-22T03:38:31.505Z,6.33
2023-03-22T03:41:35.099Z,6.37
2023-03-22T03:44:38.986Z,6.43
2023-03-22T03:47:44.644Z,6.32
2023-03-22T03:50:50.983Z,6.39
2023-03-22T03:53:53.705Z,6.21
2023-03-22T03:56:57.697Z,6.36
2023-03-22T04:00:00.226Z,6.40
2023-03-22T04:03:21.498Z,6.35
2023-03-22T04:06:46.460Z,6.29
2023-03-22T04:09:53.142Z,6.23
2023-03-22T04:13:00.433Z,6.14
2023-03-22T04:16:03.072Z,6.10
2023-03-22T04:19:09.536Z,6.05
2023-03-22T04:22:18.647Z,6.06
2023-03-22T04:25:22.997Z,6.24
2023-03-22T04:28:37.143Z,6.14
2023-03-22T04:31:39.552Z,6.00
2023-03-22T04:34:56.360Z,5.98
2023-03-22T04:38:00.896Z,5.78
2023-03-22T04:41:05.579Z,5.76
2023-03-22T04:44:15.982Z,5.63
2023-03-22T04:47:24.246Z,5.61
2023-03-22T04:50:28.230Z,5.82
2023-03-22T04:53:38.744Z,5.97
2023-03-22T04:56:42.064Z,5.87
2023-03-22T04:59:44.623Z,5.86
2023-03-22T05:02:47.043Z,5.81
2023-03-22T05:05:59.400Z,5.81
2023-03-22T05:09:11.020Z,6.12
2023-03-22T05:12:13.727Z,6.03
2023-03-22T05:15:28.846Z,6.12
2023-03-22T05:18:32.866Z,6.05
2023-03-22T05:21:37.076Z,6.15
2023-03-22T05:24:40.849Z,6.89
2023-03-22T05:27:50.365Z,7.62
2023-03-22T05:31:28.656Z,7.87
2023-03-22T05:34:37.131Z,8.17
2023-03-22T05:37:53.336Z,8.65
2023-03-22T05:40:56.993Z,8.63
2023-03-22T05:44:00.452Z,9.18
2023-03-22T05:47:04.941Z,9.58
2023-03-22T05:50:27.693Z,9.47
2023-03-22T05:53:31.903Z,9.27
2023-03-22T05:56:44.326Z,9.31
2023-03-22T05:59:46.728Z,9.72
2023-03-22T06:02:56.803Z,10.18
2023-03-22T06:05:59.937Z,9.76
2023-03-22T06:09:18.201Z,9.81
2023-03-22T06:12:27.202Z,10.08
2023-03-22T06:15:50.067Z,9.61
2023-03-22T06:18:56.059Z,10.35
2023-03-22T06:21:58.396Z,10.96
2023-03-22T06:25:02.339Z,11.12
2023-03-22T06:28:12.423Z,11.84
2023-03-22T06:31:21.941Z,11.10
2023-03-22T06:34:29.125Z,11.82
2023-03-22T06:37:31.553Z,12.44
2023-03-22T06:40:35.846Z,11.73
2023-03-22T06:43:38.242Z,11.61
2023-03-22T06:46:57.268Z,12.73
2023-03-22T06:50:34.194Z,12.68
2023-03-22T06:53:41.282Z,12.69
2023-03-22T06:56:43.647Z,12.76
2023-03-22T06:59:46.477Z,12.66
2023-03-22T07:02:50.863Z,12.49
2023-03-22T07:06:10.627Z,12.58
2023-03-22T07:09:18.304Z,11.88
2023-03-22T07:12:23.330Z,11.86
2023-03-22T07:15:27.398Z,12.18
2023-03-22T07:18:37.817Z,12.07
2023-03-22T07:21:40.457Z,12.33
2023-03-22T07:24:56.180Z,12.34
2023-03-22T07:28:01.145Z,12.65
2023-03-22T07:31:07.776Z,13.13
2023-03-22T07:34:20.792Z,13.62
2023-03-22T07:37:37.165Z,13.46
2023-03-22T07:40:44.864Z,13.74
2023-03-22T07:43:56.666Z,13.86
2023-03-22T07:47:04.713Z,14.17
2023-03-22T07:50:21.696Z,13.72
2023-03-22T07:53:29.226Z,14.07
2023-03-22T07:56:32.761Z,13.86
2023-03-22T07:59:35.547Z,13.88
2023-03-22T08:02:39.018Z,13.84
2023-03-22T08:05:42.927Z,14.30
2023-03-22T08:08:48.553Z,14.17
2023-03-22T08:11:51.029Z,14.55
2023-03-22T08:14:53.443Z,14.02
2023-03-22T08:18:01.065Z,14.63
2023-03-22T08:21:08.820Z,14.85
2023-03-22T08:24:14.317Z,14.83
2023-03-22T08:27:27.534Z,14.57
2023-03-22T08:30:37.449Z,14.71
2023-03-22T08:33:40.058Z,14.81
2023-03-22T08:36:42.364Z,15.03
2023-03-22T08:39:45.393Z,15.08
2023-03-22T08:42:57.523Z,15.21
2023-03-22T08:46:00.497Z,15.25
2023-03-22T08:49:03.653Z,15.21
2023-03-22T08:52:13.748Z,14.95
2023-03-22T08:55:36.252Z,14.53
2023-03-22T08:58:46.846Z,14.78
2023-03-22T09:02:09.475Z,15.25
2023-03-22T09:05:13.709Z,15.66
2023-03-22T09:08:19.461Z,16.02
2023-03-22T09:11:24.497Z,16.07
2023-03-22T09:14:26.836Z,15.92
2023-03-22T09:17:31.150Z,15.83
2023-03-22T09:20:35.193Z,15.99
2023-03-22T09:23:48.115Z,16.32
2023-03-22T09:27:03.273Z,16.22
2023-03-22T09:30:12.342Z,16.22
2023-03-22T09:33:16.053Z,16.46
2023-03-22T09:36:29.521Z,16.21
2023-03-22T09:39:32.290Z,16.26
2023-03-22T09:42:44.210Z,15.77
2023-03-22T09:45:51.406Z,15.81
2023-03-22T09:48:53.994Z,15.83
2023-03-22T09:51:56.804Z,16.35
2023-03-22T09:54:59.615Z,16.17
2023-03-22T09:58:24.201Z,16.61
2023-03-22T10:01:57.523Z,16.23
2023-03-22T10:05:05.928Z,16.31
2023-03-22T10:08:36.821Z,16.36
2023-03-22T10:11:46.379Z,19.43
2023-03-22T10:14:57.687Z,20.74
2023-03-22T10:18:03.707Z,21.07
2023-03-22T10:21:12.368Z,21.44
2023-03-22T10:24:27.966Z,21.40
2023-03-22T10:27:33.170Z,21.48
2023-03-22T10:30:40.747Z,20.16
2023-03-22T10:33:56.251Z,21.18
2023-03-22T10:37:04.059Z,20.89
2023-03-22T10:40:07.895Z,19.25
2023-03-22T10:43:38.049Z,20.01
2023-03-22T10:46:44.959Z,19.28
2023-03-22T10:49:55.193Z,18.51
2023-03-22T10:53:28.545Z,19.28
2023-03-22T10:56:31.067Z,18.88
2023-03-22T10:59:47.651Z,17.40
2023-03-22T11:02:58.602Z,16.59
2023-03-22T11:06:13.575Z,17.30
2023-03-22T11:09:18.664Z,17.24
2023-03-22T11:12:21.028Z,16.39
2023-03-22T11:15:27.993Z,16.23
2023-03-22T11:18:32.551Z,16.53
2023-03-22T11:21:35.140Z,17.02
2023-03-22T11:24:37.477Z,17.15
2023-03-22T11:27:51.001Z,17.09
2023-03-22T11:30:58.965Z,16.84
2023-03-22T11:34:02.306Z,16.67
2023-03-22T11:37:08.218Z,16.50
2023-03-22T11:40:17.946Z,17.17
2023-03-22T11:43:26.877Z,17.73
2023-03-22T11:46:31.072Z,17.75
2023-03-22T11:49:48.764Z,17.76
2023-03-22T11:52:51.221Z,16.97
2023-03-22T11:55:57.729Z,17.87
2023-03-22T11:59:15.443Z,17.75
2023-03-22T12:02:30.260Z,18.07
2023-03-22T12:05:37.660Z,17.68
2023-03-22T12:08:45.078Z,17.91
2023-03-22T12:11:51.257Z,18.52
2023-03-22T12:15:19.463Z,18.99
2023-03-22T12:18:45.929Z,18.68
2023-03-22T12:21:50.094Z,17.52
2023-03-22T12:24:52.597Z,17.63
2023-03-22T12:27:59.393Z,18.58
2023-03-22T12:31:03.790Z,19.35
2023-03-22T12:34:10.449Z,18.73
2023-03-22T12:37:20.896Z,17.71
2023-03-22T12:40:28.423Z,17.72
2023-03-22T12:43:48.700Z,17.35
2023-03-22T12:47:12.486Z,17.05
2023-03-22T12:50:20.038Z,16.91
2023-03-22T12:53:26.958Z,17.02
2023-03-22T12:56:38.838Z,16.93
2023-03-22T12:59:45.354Z,16.78
2023-03-22T13:03:02.255Z,17.15
2023-03-22T13:06:26.932Z,17.27
2023-03-22T13:09:47.694Z,17.59
2023-03-22T13:13:08.751Z,17.81
2023-03-22T13:16:11.165Z,17.71
2023-03-22T13:19:29.959Z,17.90
2023-03-22T13:22:38.297Z,18.32
2023-03-22T13:26:01.754Z,18.42
2023-03-22T13:29:15.607Z,18.18
2023-03-22T13:32:33.542Z,18.04
2023-03-22T13:35:44.353Z,17.77
2023-03-22T13:38:54.860Z,17.81
2023-03-22T13:42:20.853Z,18.04
2023-03-22T13:45:33.447Z,18.09
2023-03-22T13:48:50.336Z,17.95
2023-03-22T13:51:53.153Z,18.23
2023-03-22T13:54:57.665Z,17.99
2023-03-22T13:58:01.824Z,18.12
2023-03-22T14:01:12.687Z,17.97
2023-03-22T14:04:22.823Z,18.03
2023-03-22T14:07:41.768Z,17.97
2023-03-22T14:10:49.756Z,17.84
2023-03-22T14:14:07.881Z,17.85
2023-03-22T14:17:20.617Z,17.84
2023-03-22T14:20:27.184Z,17.75
